sensor_id;sensor_type;location;lat;lon;timestamp;P1;durP1;ratioP1;P2;durP2;ratioP2
19195;SDS011;9730;48.926;11.376;2022-09-09T00:00:53;62.22;;;4.75;;
19195;SDS011;9730;48.926;11.376;2022-09-09T00:03:26;153.35;;;7.35;;
19195;SDS011;9730;48.926;11.376;2022-09-09T00:06:01;67.70;;;5.45;;
19195;SDS011;9730;48.926;11.376;2022-09-09T00:08:34;50.53;;;4.63;;
19195;SDS011;9730;48.926;11.376;2022-09-09T00:11:12;8.80;;;3.08;;
19195;SDS011;9730;48.926;11.376;2022-09-09T00:13:42;17.58;;;3.30;;
19195;SDS011;9730;48.926;11.376;2022-09-09T00:16:15;2.45;;;2.10;;
19195;SDS011;9730;48.926;11.376;2022-09-09T00:18:48;3.95;;;2.28;;
19195;SDS011;9730;48.926;11.376;2022-09-09T00:21:23;3.40;;;2.25;;
19195;SDS011;9730;48.926;11.376;2022-09-09T00:23:57;6.32;;;2.03;;
19195;SDS011;9730;48.926;11.376;2022-09-09T00:26:26;2.78;;;2.40;;
19195;SDS011;9730;48.926;11.376;2022-09-09T00:29:00;4.55;;;2.55;;
19195;SDS011;9730;48.926;11.376;2022-09-09T00:31:31;5.82;;;2.33;;
19195;SDS011;9730;48.926;11.376;2022-09-09T00:33:58;7.10;;;2.22;;
19195;SDS011;9730;48.926;11.376;2022-09-09T00:36:33;3.10;;;2.63;;
19195;SDS011;9730;48.926;11.376;2022-09-09T00:39:02;4.13;;;2.38;;
19195;SDS011;9730;48.926;11.376;2022-09-09T00:41:31;2.05;;;1.85;;
19195;SDS011;9730;48.926;11.376;2022-09-09T00:44:14;4.13;;;2.13;;
19195;SDS011;9730;48.926;11.376;2022-09-09T00:47:04;5.43;;;2.65;;
19195;SDS011;9730;48.926;11.376;2022-09-09T00:49:42;5.00;;;2.13;;
19195;SDS011;9730;48.926;11.376;2022-09-09T00:52:25;2.10;;;1.85;;
19195;SDS011;9730;48.926;11.376;2022-09-09T00:55:02;2.63;;;1.75;;
19195;SDS011;9730;48.926;11.376;2022-09-09T00:57:32;4.15;;;2.28;;
19195;SDS011;9730;48.926;11.376;2022-09-09T01:02:59;5.20;;;2.05;;
19195;SDS011;9730;48.926;11.376;2022-09-09T01:05:36;5.50;;;1.75;;
19195;SDS011;9730;48.926;11.376;2022-09-09T01:08:11;2.38;;;1.60;;
19195;SDS011;9730;48.926;11.376;2022-09-09T01:10:49;4.15;;;1.75;;
19195;SDS011;9730;48.926;11.376;2022-09-09T01:13:21;1.95;;;1.50;;
19195;SDS011;9730;48.926;11.376;2022-09-09T01:15:52;1.90;;;1.70;;
19195;SDS011;9730;48.926;11.376;2022-09-09T01:18:21;2.58;;;1.95;;
19195;SDS011;9730;48.926;11.376;2022-09-09T01:20:53;3.10;;;1.77;;
19195;SDS011;9730;48.926;11.376;2022-09-09T01:23:33;2.47;;;1.63;;
19195;SDS011;9730;48.926;11.376;2022-09-09T01:26:21;2.40;;;1.80;;
19195;SDS011;9730;48.926;11.376;2022-09-09T01:28:52;2.20;;;1.85;;
19195;SDS011;9730;48.926;11.376;2022-09-09T01:31:28;2.67;;;1.95;;
19195;SDS011;9730;48.926;11.376;2022-09-09T01:33:57;2.42;;;1.90;;
19195;SDS011;9730;48.926;11.376;2022-09-09T01:36:26;1.90;;;1.52;;
19195;SDS011;9730;48.926;11.376;2022-09-09T01:38:58;5.88;;;2.40;;
19195;SDS011;9730;48.926;11.376;2022-09-09T01:41:27;15.43;;;3.33;;
19195;SDS011;9730;48.926;11.376;2022-09-09T01:44:00;5.65;;;2.22;;
19195;SDS011;9730;48.926;11.376;2022-09-09T01:46:29;11.23;;;3.25;;
19195;SDS011;9730;48.926;11.376;2022-09-09T01:48:57;7.85;;;3.17;;
19195;SDS011;9730;48.926;11.376;2022-09-09T01:51:25;10.88;;;4.00;;
19195;SDS011;9730;48.926;11.376;2022-09-09T01:53:52;45.10;;;5.28;;
19195;SDS011;9730;48.926;11.376;2022-09-09T01:56:22;16.98;;;4.82;;
19195;SDS011;9730;48.926;11.376;2022-09-09T01:59:01;11.52;;;4.65;;
19195;SDS011;9730;48.926;11.376;2022-09-09T02:01:36;24.90;;;5.13;;
19195;SDS011;9730;48.926;11.376;2022-09-09T02:04:15;15.43;;;4.88;;
19195;SDS011;9730;48.926;11.376;2022-09-09T02:06:55;38.63;;;6.90;;
19195;SDS011;9730;48.926;11.376;2022-09-09T02:09:26;63.63;;;6.00;;
19195;SDS011;9730;48.926;11.376;2022-09-09T02:11:59;30.08;;;4.38;;
19195;SDS011;9730;48.926;11.376;2022-09-09T02:14:40;23.27;;;4.43;;
19195;SDS011;9730;48.926;11.376;2022-09-09T02:17:09;19.67;;;5.25;;
19195;SDS011;9730;48.926;11.376;2022-09-09T02:19:52;18.88;;;6.10;;
19195;SDS011;9730;48.926;11.376;2022-09-09T02:22:37;20.95;;;5.55;;
19195;SDS011;9730;48.926;11.376;2022-09-09T02:25:06;44.60;;;5.13;;
19195;SDS011;9730;48.926;11.376;2022-09-09T02:27:38;39.53;;;4.13;;
19195;SDS011;9730;48.926;11.376;2022-09-09T02:30:09;41.50;;;5.80;;
19195;SDS011;9730;48.926;11.376;2022-09-09T02:32:41;37.00;;;4.70;;
19195;SDS011;9730;48.926;11.376;2022-09-09T02:35:13;86.82;;;6.30;;
19195;SDS011;9730;48.926;11.376;2022-09-09T02:37:42;49.35;;;5.47;;
19195;SDS011;9730;48.926;11.376;2022-09-09T02:40:12;44.50;;;5.70;;
19195;SDS011;9730;48.926;11.376;2022-09-09T02:42:47;20.05;;;5.57;;
19195;SDS011;9730;48.926;11.376;2022-09-09T02:45:17;26.85;;;5.43;;
19195;SDS011;9730;48.926;11.376;2022-09-09T02:47:50;122.00;;;10.07;;
19195;SDS011;9730;48.926;11.376;2022-09-09T02:50:23;12.35;;;6.53;;
19195;SDS011;9730;48.926;11.376;2022-09-09T02:53:00;6.57;;;5.00;;
19195;SDS011;9730;48.926;11.376;2022-09-09T02:55:37;18.70;;;5.43;;
19195;SDS011;9730;48.926;11.376;2022-09-09T02:58:10;16.38;;;5.25;;
19195;SDS011;9730;48.926;11.376;2022-09-09T03:00:43;15.68;;;5.65;;
19195;SDS011;9730;48.926;11.376;2022-09-09T03:03:11;11.50;;;4.65;;
19195;SDS011;9730;48.926;11.376;2022-09-09T03:05:39;37.35;;;6.72;;
19195;SDS011;9730;48.926;11.376;2022-09-09T03:08:05;10.38;;;5.35;;
19195;SDS011;9730;48.926;11.376;2022-09-09T03:10:32;12.77;;;5.15;;
19195;SDS011;9730;48.926;11.376;2022-09-09T03:12:59;21.00;;;5.68;;
19195;SDS011;9730;48.926;11.376;2022-09-09T03:15:31;13.10;;;6.38;;
19195;SDS011;9730;48.926;11.376;2022-09-09T03:17:58;23.90;;;6.93;;
19195;SDS011;9730;48.926;11.376;2022-09-09T03:20:25;74.20;;;8.15;;
19195;SDS011;9730;48.926;11.376;2022-09-09T03:22:52;61.90;;;8.73;;
19195;SDS011;9730;48.926;11.376;2022-09-09T03:25:19;33.67;;;5.75;;
19195;SDS011;9730;48.926;11.376;2022-09-09T03:27:47;118.28;;;10.90;;
19195;SDS011;9730;48.926;11.376;2022-09-09T03:30:15;102.60;;;10.02;;
19195;SDS011;9730;48.926;11.376;2022-09-09T03:32:43;4.45;;;3.22;;
19195;SDS011;9730;48.926;11.376;2022-09-09T03:35:10;3.80;;;3.10;;
19195;SDS011;9730;48.926;11.376;2022-09-09T03:37:37;4.10;;;2.83;;
19195;SDS011;9730;48.926;11.376;2022-09-09T03:40:04;8.85;;;2.90;;
19195;SDS011;9730;48.926;11.376;2022-09-09T03:42:32;32.15;;;4.32;;
19195;SDS011;9730;48.926;11.376;2022-09-09T03:44:59;6.55;;;3.95;;
19195;SDS011;9730;48.926;11.376;2022-09-09T03:47:26;6.57;;;4.85;;
19195;SDS011;9730;48.926;11.376;2022-09-09T03:50:00;5.22;;;4.38;;
19195;SDS011;9730;48.926;11.376;2022-09-09T03:52:27;39.67;;;5.63;;
19195;SDS011;9730;48.926;11.376;2022-09-09T03:54:54;45.38;;;6.38;;
19195;SDS011;9730;48.926;11.376;2022-09-09T03:57:22;34.47;;;5.10;;
19195;SDS011;9730;48.926;11.376;2022-09-09T03:59:49;5.63;;;4.68;;
19195;SDS011;9730;48.926;11.376;2022-09-09T04:02:15;9.50;;;4.57;;
19195;SDS011;9730;48.926;11.376;2022-09-09T04:04:42;5.13;;;4.45;;
19195;SDS011;9730;48.926;11.376;2022-09-09T04:07:10;4.93;;;3.63;;
19195;SDS011;9730;48.926;11.376;2022-09-09T04:12:04;4.20;;;3.20;;
19195;SDS011;9730;48.926;11.376;2022-09-09T04:14:32;5.72;;;3.90;;
19195;SDS011;9730;48.926;11.376;2022-09-09T04:16:59;4.40;;;3.75;;
19195;SDS011;9730;48.926;11.376;2022-09-09T04:19:25;3.58;;;3.10;;
19195;SDS011;9730;48.926;11.376;2022-09-09T04:21:52;4.93;;;3.92;;
19195;SDS011;9730;48.926;11.376;2022-09-09T04:24:22;4.77;;;3.90;;
19195;SDS011;9730;48.926;11.376;2022-09-09T04:29:16;5.85;;;3.80;;
19195;SDS011;9730;48.926;11.376;2022-09-09T04:31:42;4.00;;;2.88;;
19195;SDS011;9730;48.926;11.376;2022-09-09T04:34:09;4.32;;;3.08;;
19195;SDS011;9730;48.926;11.376;2022-09-09T04:36:36;4.25;;;3.50;;
19195;SDS011;9730;48.926;11.376;2022-09-09T04:39:04;13.67;;;5.63;;
19195;SDS011;9730;48.926;11.376;2022-09-09T04:41:32;9.10;;;4.70;;
19195;SDS011;9730;48.926;11.376;2022-09-09T04:43:59;8.35;;;4.97;;
19195;SDS011;9730;48.926;11.376;2022-09-09T04:46:26;6.20;;;4.90;;
19195;SDS011;9730;48.926;11.376;2022-09-09T04:48:52;6.38;;;5.15;;
19195;SDS011;9730;48.926;11.376;2022-09-09T04:51:21;6.43;;;5.40;;
19195;SDS011;9730;48.926;11.376;2022-09-09T04:53:50;10.73;;;3.95;;
19195;SDS011;9730;48.926;11.376;2022-09-09T04:58:52;6.95;;;4.43;;
19195;SDS011;9730;48.926;11.376;2022-09-09T05:01:22;6.32;;;4.50;;
19195;SDS011;9730;48.926;11.376;2022-09-09T05:03:51;7.43;;;4.40;;
19195;SDS011;9730;48.926;11.376;2022-09-09T05:06:21;6.25;;;4.03;;
19195;SDS011;9730;48.926;11.376;2022-09-09T05:08:54;6.97;;;4.10;;
19195;SDS011;9730;48.926;11.376;2022-09-09T05:11:24;5.97;;;4.25;;
19195;SDS011;9730;48.926;11.376;2022-09-09T05:13:57;5.63;;;3.08;;
19195;SDS011;9730;48.926;11.376;2022-09-09T05:16:24;8.02;;;4.05;;
19195;SDS011;9730;48.926;11.376;2022-09-09T05:18:51;6.05;;;3.53;;
19195;SDS011;9730;48.926;11.376;2022-09-09T05:21:20;6.15;;;3.78;;
19195;SDS011;9730;48.926;11.376;2022-09-09T05:23:48;11.10;;;4.47;;
19195;SDS011;9730;48.926;11.376;2022-09-09T05:28:47;330.13;;;18.58;;
19195;SDS011;9730;48.926;11.376;2022-09-09T05:31:16;219.85;;;14.57;;
19195;SDS011;9730;48.926;11.376;2022-09-09T05:33:46;408.73;;;22.42;;
19195;SDS011;9730;48.926;11.376;2022-09-09T05:36:15;52.15;;;5.45;;
19195;SDS011;9730;48.926;11.376;2022-09-09T05:38:44;7.32;;;3.42;;
19195;SDS011;9730;48.926;11.376;2022-09-09T05:41:11;3.80;;;3.40;;
19195;SDS011;9730;48.926;11.376;2022-09-09T05:43:41;3.83;;;3.42;;
19195;SDS011;9730;48.926;11.376;2022-09-09T05:46:10;3.97;;;3.58;;
19195;SDS011;9730;48.926;11.376;2022-09-09T05:48:39;4.65;;;4.10;;
19195;SDS011;9730;48.926;11.376;2022-09-09T05:51:08;24.27;;;4.18;;
19195;SDS011;9730;48.926;11.376;2022-09-09T05:53:36;4.40;;;3.40;;
19195;SDS011;9730;48.926;11.376;2022-09-09T05:56:04;4.75;;;2.90;;
19195;SDS011;9730;48.926;11.376;2022-09-09T05:58:34;3.17;;;2.70;;
19195;SDS011;9730;48.926;11.376;2022-09-09T06:01:04;3.33;;;2.40;;
19195;SDS011;9730;48.926;11.376;2022-09-09T06:03:31;5.10;;;2.88;;
19195;SDS011;9730;48.926;11.376;2022-09-09T06:06:00;2.50;;;2.30;;
19195;SDS011;9730;48.926;11.376;2022-09-09T06:08:30;5.28;;;2.50;;
19195;SDS011;9730;48.926;11.376;2022-09-09T06:11:00;3.78;;;2.80;;
19195;SDS011;9730;48.926;11.376;2022-09-09T06:13:29;3.25;;;2.60;;
19195;SDS011;9730;48.926;11.376;2022-09-09T06:15:56;2.65;;;2.20;;
19195;SDS011;9730;48.926;11.376;2022-09-09T06:18:23;2.50;;;2.30;;
19195;SDS011;9730;48.926;11.376;2022-09-09T06:20:55;2.40;;;2.08;;
19195;SDS011;9730;48.926;11.376;2022-09-09T06:23:24;3.17;;;2.38;;
19195;SDS011;9730;48.926;11.376;2022-09-09T06:25:51;2.65;;;2.35;;
19195;SDS011;9730;48.926;11.376;2022-09-09T06:28:26;5.80;;;3.00;;
19195;SDS011;9730;48.926;11.376;2022-09-09T06:30:56;3.15;;;2.63;;
19195;SDS011;9730;48.926;11.376;2022-09-09T06:33:24;2.72;;;2.35;;
19195;SDS011;9730;48.926;11.376;2022-09-09T06:35:51;3.53;;;3.10;;
19195;SDS011;9730;48.926;11.376;2022-09-09T06:38:19;5.88;;;3.05;;
19195;SDS011;9730;48.926;11.376;2022-09-09T06:40:51;4.57;;;3.70;;
19195;SDS011;9730;48.926;11.376;2022-09-09T06:43:20;5.63;;;3.72;;
19195;SDS011;9730;48.926;11.376;2022-09-09T06:45:55;4.18;;;3.60;;
19195;SDS011;9730;48.926;11.376;2022-09-09T06:48:23;7.50;;;3.25;;
19195;SDS011;9730;48.926;11.376;2022-09-09T06:50:51;4.30;;;2.78;;
19195;SDS011;9730;48.926;11.376;2022-09-09T06:53:19;10.07;;;2.67;;
19195;SDS011;9730;48.926;11.376;2022-09-09T06:55:46;3.72;;;2.80;;
19195;SDS011;9730;48.926;11.376;2022-09-09T06:58:14;3.85;;;2.78;;
19195;SDS011;9730;48.926;11.376;2022-09-09T07:00:41;3.60;;;3.00;;
19195;SDS011;9730;48.926;11.376;2022-09-09T07:03:07;4.63;;;3.10;;
19195;SDS011;9730;48.926;11.376;2022-09-09T07:05:35;4.75;;;2.90;;
19195;SDS011;9730;48.926;11.376;2022-09-09T07:08:02;3.33;;;2.95;;
19195;SDS011;9730;48.926;11.376;2022-09-09T07:10:29;9.48;;;7.10;;
19195;SDS011;9730;48.926;11.376;2022-09-09T07:12:55;11.57;;;5.90;;
19195;SDS011;9730;48.926;11.376;2022-09-09T07:15:25;5.07;;;3.83;;
19195;SDS011;9730;48.926;11.376;2022-09-09T07:17:53;3.53;;;3.20;;
19195;SDS011;9730;48.926;11.376;2022-09-09T07:20:20;3.97;;;3.35;;
19195;SDS011;9730;48.926;11.376;2022-09-09T07:22:46;4.18;;;3.05;;
19195;SDS011;9730;48.926;11.376;2022-09-09T07:25:13;6.70;;;4.75;;
19195;SDS011;9730;48.926;11.376;2022-09-09T07:27:42;4.22;;;3.60;;
19195;SDS011;9730;48.926;11.376;2022-09-09T07:30:10;6.25;;;4.00;;
19195;SDS011;9730;48.926;11.376;2022-09-09T07:32:38;6.20;;;3.72;;
19195;SDS011;9730;48.926;11.376;2022-09-09T07:35:05;5.22;;;4.13;;
19195;SDS011;9730;48.926;11.376;2022-09-09T07:37:35;5.05;;;3.60;;
19195;SDS011;9730;48.926;11.376;2022-09-09T07:40:03;6.47;;;3.70;;
19195;SDS011;9730;48.926;11.376;2022-09-09T07:42:30;8.35;;;4.20;;
19195;SDS011;9730;48.926;11.376;2022-09-09T07:44:57;6.53;;;4.55;;
19195;SDS011;9730;48.926;11.376;2022-09-09T07:47:24;5.15;;;3.92;;
19195;SDS011;9730;48.926;11.376;2022-09-09T07:49:52;6.30;;;3.80;;
19195;SDS011;9730;48.926;11.376;2022-09-09T07:52:24;8.27;;;4.25;;
19195;SDS011;9730;48.926;11.376;2022-09-09T07:54:55;6.25;;;4.63;;
19195;SDS011;9730;48.926;11.376;2022-09-09T07:57:22;13.00;;;4.45;;
19195;SDS011;9730;48.926;11.376;2022-09-09T07:59:50;8.93;;;4.93;;
19195;SDS011;9730;48.926;11.376;2022-09-09T08:02:17;9.70;;;5.07;;
19195;SDS011;9730;48.926;11.376;2022-09-09T08:04:44;7.35;;;4.55;;
19195;SDS011;9730;48.926;11.376;2022-09-09T08:07:13;7.68;;;4.53;;
19195;SDS011;9730;48.926;11.376;2022-09-09T08:09:47;11.18;;;4.85;;
19195;SDS011;9730;48.926;11.376;2022-09-09T08:12:20;6.07;;;4.80;;
19195;SDS011;9730;48.926;11.376;2022-09-09T08:14:46;7.45;;;4.72;;
19195;SDS011;9730;48.926;11.376;2022-09-09T08:17:13;5.85;;;4.30;;
19195;SDS011;9730;48.926;11.376;2022-09-09T08:19:41;5.53;;;3.20;;
19195;SDS011;9730;48.926;11.376;2022-09-09T08:22:15;6.15;;;3.53;;
19195;SDS011;9730;48.926;11.376;2022-09-09T08:24:41;5.75;;;3.40;;
19195;SDS011;9730;48.926;11.376;2022-09-09T08:27:08;6.53;;;3.65;;
19195;SDS011;9730;48.926;11.376;2022-09-09T08:29:36;6.43;;;4.10;;
19195;SDS011;9730;48.926;11.376;2022-09-09T08:32:04;5.65;;;3.53;;
19195;SDS011;9730;48.926;11.376;2022-09-09T08:34:31;7.78;;;4.25;;
19195;SDS011;9730;48.926;11.376;2022-09-09T08:37:02;5.80;;;3.83;;
19195;SDS011;9730;48.926;11.376;2022-09-09T08:39:35;6.45;;;2.80;;
19195;SDS011;9730;48.926;11.376;2022-09-09T08:42:15;4.63;;;2.70;;
19195;SDS011;9730;48.926;11.376;2022-09-09T08:45:02;5.63;;;3.13;;
19195;SDS011;9730;48.926;11.376;2022-09-09T08:47:43;4.13;;;2.85;;
19195;SDS011;9730;48.926;11.376;2022-09-09T08:50:23;6.05;;;3.42;;
19195;SDS011;9730;48.926;11.376;2022-09-09T08:53:00;5.38;;;3.22;;
19195;SDS011;9730;48.926;11.376;2022-09-09T08:55:35;5.25;;;3.33;;
19195;SDS011;9730;48.926;11.376;2022-09-09T08:58:09;7.57;;;3.67;;
19195;SDS011;9730;48.926;11.376;2022-09-09T09:00:41;8.50;;;3.28;;
19195;SDS011;9730;48.926;11.376;2022-09-09T09:03:15;7.35;;;3.15;;
19195;SDS011;9730;48.926;11.376;2022-09-09T09:05:51;4.72;;;2.80;;
19195;SDS011;9730;48.926;11.376;2022-09-09T09:08:26;4.18;;;2.80;;
19195;SDS011;9730;48.926;11.376;2022-09-09T09:11:00;6.50;;;2.95;;
19195;SDS011;9730;48.926;11.376;2022-09-09T09:13:30;9.48;;;3.63;;
19195;SDS011;9730;48.926;11.376;2022-09-09T09:16:06;4.53;;;2.55;;
19195;SDS011;9730;48.926;11.376;2022-09-09T09:18:37;5.80;;;2.80;;
19195;SDS011;9730;48.926;11.376;2022-09-09T09:21:05;6.20;;;2.25;;
19195;SDS011;9730;48.926;11.376;2022-09-09T09:23:42;5.20;;;2.40;;
19195;SDS011;9730;48.926;11.376;2022-09-09T09:26:13;5.07;;;2.70;;
19195;SDS011;9730;48.926;11.376;2022-09-09T09:28:41;5.63;;;2.20;;
19195;SDS011;9730;48.926;11.376;2022-09-09T09:31:14;5.07;;;2.90;;
19195;SDS011;9730;48.926;11.376;2022-09-09T09:33:46;3.90;;;2.25;;
19195;SDS011;9730;48.926;11.376;2022-09-09T09:36:16;4.82;;;2.10;;
19195;SDS011;9730;48.926;11.376;2022-09-09T09:38:54;5.63;;;1.60;;
19195;SDS011;9730;48.926;11.376;2022-09-09T09:41:31;6.25;;;2.05;;
19195;SDS011;9730;48.926;11.376;2022-09-09T09:44:00;5.35;;;1.80;;
19195;SDS011;9730;48.926;11.376;2022-09-09T09:46:28;2.33;;;1.30;;
19195;SDS011;9730;48.926;11.376;2022-09-09T09:49:08;4.25;;;1.17;;
19195;SDS011;9730;48.926;11.376;2022-09-09T09:51:37;0.98;;;0.75;;
19195;SDS011;9730;48.926;11.376;2022-09-09T09:54:07;5.03;;;1.30;;
19195;SDS011;9730;48.926;11.376;2022-09-09T09:56:44;3.78;;;1.33;;
19195;SDS011;9730;48.926;11.376;2022-09-09T09:59:19;2.30;;;1.05;;
19195;SDS011;9730;48.926;11.376;2022-09-09T10:01:47;2.72;;;0.95;;
19195;SDS011;9730;48.926;11.376;2022-09-09T10:04:16;3.47;;;1.27;;
19195;SDS011;9730;48.926;11.376;2022-09-09T10:06:45;2.05;;;1.10;;
19195;SDS011;9730;48.926;11.376;2022-09-09T10:09:20;3.63;;;1.10;;
19195;SDS011;9730;48.926;11.376;2022-09-09T10:11:52;3.35;;;1.00;;
19195;SDS011;9730;48.926;11.376;2022-09-09T10:14:24;7.53;;;1.30;;
19195;SDS011;9730;48.926;11.376;2022-09-09T10:17:04;2.30;;;1.13;;
19195;SDS011;9730;48.926;11.376;2022-09-09T10:19:42;3.35;;;1.23;;
19195;SDS011;9730;48.926;11.376;2022-09-09T10:22:18;2.28;;;1.00;;
19195;SDS011;9730;48.926;11.376;2022-09-09T10:27:56;1.63;;;1.05;;
19195;SDS011;9730;48.926;11.376;2022-09-09T10:30:38;3.50;;;1.08;;
19195;SDS011;9730;48.926;11.376;2022-09-09T10:33:16;1.40;;;1.02;;
19195;SDS011;9730;48.926;11.376;2022-09-09T10:35:50;2.58;;;1.40;;
19195;SDS011;9730;48.926;11.376;2022-09-09T10:38:20;1.70;;;0.90;;
19195;SDS011;9730;48.926;11.376;2022-09-09T10:41:00;1.65;;;1.00;;
19195;SDS011;9730;48.926;11.376;2022-09-09T10:46:57;4.00;;;1.40;;
19195;SDS011;9730;48.926;11.376;2022-09-09T10:49:41;3.13;;;1.30;;
19195;SDS011;9730;48.926;11.376;2022-09-09T10:52:19;5.22;;;1.48;;
19195;SDS011;9730;48.926;11.376;2022-09-09T10:54:53;1.98;;;1.20;;
19195;SDS011;9730;48.926;11.376;2022-09-09T10:57:25;2.85;;;1.27;;
19195;SDS011;9730;48.926;11.376;2022-09-09T10:59:59;2.95;;;1.27;;
19195;SDS011;9730;48.926;11.376;2022-09-09T11:02:30;2.15;;;1.23;;
19195;SDS011;9730;48.926;11.376;2022-09-09T11:04:59;11.45;;;1.30;;
19195;SDS011;9730;48.926;11.376;2022-09-09T11:07:30;2.65;;;1.20;;
19195;SDS011;9730;48.926;11.376;2022-09-09T11:10:02;2.85;;;1.25;;
19195;SDS011;9730;48.926;11.376;2022-09-09T11:12:33;1.25;;;0.95;;
19195;SDS011;9730;48.926;11.376;2022-09-09T11:15:06;1.73;;;1.23;;
19195;SDS011;9730;48.926;11.376;2022-09-09T11:17:39;2.03;;;1.00;;
19195;SDS011;9730;48.926;11.376;2022-09-09T11:20:11;3.53;;;1.10;;
19195;SDS011;9730;48.926;11.376;2022-09-09T11:22:39;4.82;;;1.50;;
19195;SDS011;9730;48.926;11.376;2022-09-09T11:25:10;4.53;;;1.30;;
19195;SDS011;9730;48.926;11.376;2022-09-09T11:27:43;4.88;;;1.20;;
19195;SDS011;9730;48.926;11.376;2022-09-09T11:30:22;3.63;;;1.25;;
19195;SDS011;9730;48.926;11.376;2022-09-09T11:32:59;3.22;;;1.15;;
19195;SDS011;9730;48.926;11.376;2022-09-09T11:35:38;3.20;;;1.40;;
19195;SDS011;9730;48.926;11.376;2022-09-09T11:38:18;2.47;;;1.05;;
19195;SDS011;9730;48.926;11.376;2022-09-09T11:40:47;3.50;;;1.33;;
19195;SDS011;9730;48.926;11.376;2022-09-09T11:43:23;3.53;;;1.30;;
19195;SDS011;9730;48.926;11.376;2022-09-09T11:45:55;3.38;;;1.27;;
19195;SDS011;9730;48.926;11.376;2022-09-09T11:48:25;2.67;;;1.23;;
19195;SDS011;9730;48.926;11.376;2022-09-09T11:50:57;4.50;;;1.70;;
19195;SDS011;9730;48.926;11.376;2022-09-09T11:53:25;2.95;;;1.00;;
19195;SDS011;9730;48.926;11.376;2022-09-09T11:56:06;3.72;;;1.77;;
19195;SDS011;9730;48.926;11.376;2022-09-09T11:58:38;5.07;;;1.42;;
19195;SDS011;9730;48.926;11.376;2022-09-09T12:01:15;3.88;;;1.27;;
19195;SDS011;9730;48.926;11.376;2022-09-09T12:03:54;2.30;;;1.33;;
19195;SDS011;9730;48.926;11.376;2022-09-09T12:06:29;4.55;;;1.42;;
19195;SDS011;9730;48.926;11.376;2022-09-09T12:08:58;3.33;;;1.40;;
19195;SDS011;9730;48.926;11.376;2022-09-09T12:11:33;3.60;;;1.50;;
19195;SDS011;9730;48.926;11.376;2022-09-09T12:14:00;2.45;;;1.40;;
19195;SDS011;9730;48.926;11.376;2022-09-09T12:16:32;2.10;;;1.10;;
19195;SDS011;9730;48.926;11.376;2022-09-09T12:19:03;4.90;;;1.50;;
19195;SDS011;9730;48.926;11.376;2022-09-09T12:21:33;5.80;;;1.52;;
19195;SDS011;9730;48.926;11.376;2022-09-09T12:24:05;3.72;;;1.42;;
19195;SDS011;9730;48.926;11.376;2022-09-09T12:26:35;6.45;;;1.48;;
19195;SDS011;9730;48.926;11.376;2022-09-09T12:29:09;3.25;;;1.42;;
19195;SDS011;9730;48.926;11.376;2022-09-09T12:31:47;3.20;;;1.45;;
19195;SDS011;9730;48.926;11.376;2022-09-09T12:34:24;4.55;;;1.60;;
19195;SDS011;9730;48.926;11.376;2022-09-09T12:37:02;3.95;;;1.33;;
19195;SDS011;9730;48.926;11.376;2022-09-09T12:39:32;3.25;;;1.40;;
19195;SDS011;9730;48.926;11.376;2022-09-09T12:42:00;4.35;;;1.67;;
19195;SDS011;9730;48.926;11.376;2022-09-09T12:44:29;7.80;;;1.55;;
19195;SDS011;9730;48.926;11.376;2022-09-09T12:46:59;3.47;;;1.30;;
19195;SDS011;9730;48.926;11.376;2022-09-09T12:49:28;1.85;;;1.10;;
19195;SDS011;9730;48.926;11.376;2022-09-09T12:52:00;2.63;;;1.40;;
19195;SDS011;9730;48.926;11.376;2022-09-09T12:54:28;2.15;;;1.05;;
19195;SDS011;9730;48.926;11.376;2022-09-09T12:56:55;3.15;;;1.50;;
19195;SDS011;9730;48.926;11.376;2022-09-09T12:59:22;3.33;;;1.50;;
19195;SDS011;9730;48.926;11.376;2022-09-09T13:01:55;3.22;;;1.42;;
19195;SDS011;9730;48.926;11.376;2022-09-09T13:04:23;2.75;;;1.20;;
19195;SDS011;9730;48.926;11.376;2022-09-09T13:06:50;5.32;;;1.80;;
19195;SDS011;9730;48.926;11.376;2022-09-09T13:09:17;3.97;;;1.25;;
19195;SDS011;9730;48.926;11.376;2022-09-09T13:11:45;5.05;;;1.35;;
19195;SDS011;9730;48.926;11.376;2022-09-09T13:14:16;3.33;;;1.50;;
19195;SDS011;9730;48.926;11.376;2022-09-09T13:16:54;4.90;;;1.35;;
19195;SDS011;9730;48.926;11.376;2022-09-09T13:19:23;3.42;;;1.40;;
19195;SDS011;9730;48.926;11.376;2022-09-09T13:21:52;2.72;;;1.33;;
19195;SDS011;9730;48.926;11.376;2022-09-09T13:24:25;1.98;;;1.13;;
19195;SDS011;9730;48.926;11.376;2022-09-09T13:26:55;1.83;;;0.98;;
19195;SDS011;9730;48.926;11.376;2022-09-09T13:29:22;2.65;;;1.40;;
19195;SDS011;9730;48.926;11.376;2022-09-09T13:31:49;1.75;;;1.17;;
19195;SDS011;9730;48.926;11.376;2022-09-09T13:34:29;4.68;;;1.30;;
19195;SDS011;9730;48.926;11.376;2022-09-09T13:36:58;4.60;;;1.55;;
19195;SDS011;9730;48.926;11.376;2022-09-09T13:39:27;3.95;;;1.40;;
19195;SDS011;9730;48.926;11.376;2022-09-09T13:41:54;5.38;;;1.10;;
19195;SDS011;9730;48.926;11.376;2022-09-09T13:44:23;5.50;;;1.65;;
19195;SDS011;9730;48.926;11.376;2022-09-09T13:47:01;5.95;;;1.45;;
19195;SDS011;9730;48.926;11.376;2022-09-09T13:49:30;4.18;;;1.25;;
19195;SDS011;9730;48.926;11.376;2022-09-09T13:52:05;5.18;;;1.42;;
19195;SDS011;9730;48.926;11.376;2022-09-09T13:54:36;2.53;;;1.13;;
19195;SDS011;9730;48.926;11.376;2022-09-09T13:57:03;2.92;;;1.40;;
19195;SDS011;9730;48.926;11.376;2022-09-09T13:59:29;2.17;;;1.00;;
19195;SDS011;9730;48.926;11.376;2022-09-09T14:01:56;3.35;;;1.70;;
19195;SDS011;9730;48.926;11.376;2022-09-09T14:04:24;6.20;;;1.63;;
19195;SDS011;9730;48.926;11.376;2022-09-09T14:06:52;2.33;;;1.05;;
19195;SDS011;9730;48.926;11.376;2022-09-09T14:09:18;4.33;;;1.50;;
19195;SDS011;9730;48.926;11.376;2022-09-09T14:11:45;2.65;;;1.15;;
19195;SDS011;9730;48.926;11.376;2022-09-09T14:14:12;3.92;;;1.52;;
19195;SDS011;9730;48.926;11.376;2022-09-09T14:16:38;1.17;;;1.08;;
19195;SDS011;9730;48.926;11.376;2022-09-09T14:19:05;9.13;;;1.63;;
19195;SDS011;9730;48.926;11.376;2022-09-09T14:21:31;3.65;;;1.35;;
19195;SDS011;9730;48.926;11.376;2022-09-09T14:23:59;3.78;;;1.63;;
19195;SDS011;9730;48.926;11.376;2022-09-09T14:26:25;5.10;;;1.50;;
19195;SDS011;9730;48.926;11.376;2022-09-09T14:28:53;3.50;;;1.23;;
19195;SDS011;9730;48.926;11.376;2022-09-09T14:31:21;3.15;;;1.40;;
19195;SDS011;9730;48.926;11.376;2022-09-09T14:33:48;3.40;;;1.20;;
19195;SDS011;9730;48.926;11.376;2022-09-09T14:36:15;4.15;;;1.30;;
19195;SDS011;9730;48.926;11.376;2022-09-09T14:38:41;3.42;;;1.20;;
19195;SDS011;9730;48.926;11.376;2022-09-09T14:41:10;1.63;;;0.95;;
19195;SDS011;9730;48.926;11.376;2022-09-09T14:43:37;4.93;;;1.15;;
19195;SDS011;9730;48.926;11.376;2022-09-09T14:46:04;3.15;;;1.20;;
19195;SDS011;9730;48.926;11.376;2022-09-09T14:48:31;2.87;;;1.17;;
19195;SDS011;9730;48.926;11.376;2022-09-09T14:51:03;6.70;;;1.55;;
19195;SDS011;9730;48.926;11.376;2022-09-09T14:53:31;4.03;;;1.10;;
19195;SDS011;9730;48.926;11.376;2022-09-09T14:56:02;5.82;;;1.40;;
19195;SDS011;9730;48.926;11.376;2022-09-09T14:58:31;4.63;;;0.90;;
19195;SDS011;9730;48.926;11.376;2022-09-09T15:01:01;4.68;;;1.23;;
19195;SDS011;9730;48.926;11.376;2022-09-09T15:03:29;4.72;;;1.50;;
19195;SDS011;9730;48.926;11.376;2022-09-09T15:05:55;2.78;;;1.05;;
19195;SDS011;9730;48.926;11.376;2022-09-09T15:08:23;4.35;;;1.25;;
19195;SDS011;9730;48.926;11.376;2022-09-09T15:10:49;3.08;;;1.15;;
19195;SDS011;9730;48.926;11.376;2022-09-09T15:13:16;1.95;;;1.13;;
19195;SDS011;9730;48.926;11.376;2022-09-09T15:15:44;2.95;;;1.10;;
19195;SDS011;9730;48.926;11.376;2022-09-09T15:18:10;6.20;;;1.33;;
19195;SDS011;9730;48.926;11.376;2022-09-09T15:20:37;6.93;;;1.10;;
19195;SDS011;9730;48.926;11.376;2022-09-09T15:23:04;5.15;;;1.70;;
19195;SDS011;9730;48.926;11.376;2022-09-09T15:25:30;3.58;;;1.58;;